createdAt,value
2022-11-22T00:00:08.599Z,43.80
2022-11-22T00:02:30.809Z,40.35
2022-11-22T00:04:32.687Z,41.13
2022-11-22T00:06:34.882Z,41.88
2022-11-22T00:08:36.694Z,39.90
2022-11-22T00:10:38.622Z,41.67
2022-11-22T00:12:41.522Z,41.53
2022-11-22T00:14:43.403Z,40.22
2022-11-22T00:16:45.159Z,41.70
2022-11-22T00:18:47.298Z,42.42
2022-11-22T00:20:49.089Z,41.42
2022-11-22T00:22:50.886Z,40.83
2022-11-22T00:24:53.074Z,43.60
2022-11-22T00:26:54.823Z,42.28
2022-11-22T00:28:56.719Z,41.42
2022-11-22T00:30:58.849Z,39.92
2022-11-22T00:33:00.626Z,41.55
2022-11-22T00:35:02.907Z,43.55
2022-11-22T00:37:05.078Z,42.05
2022-11-22T00:39:06.853Z,41.35
2022-11-22T00:41:08.875Z,41.63
2022-11-22T00:43:11.021Z,40.33
2022-11-22T00:45:13.038Z,41.40
2022-11-22T00:47:15.086Z,43.17
2022-11-22T00:49:17.299Z,42.08
2022-11-22T00:51:19.086Z,42.25
2022-11-22T00:53:20.974Z,38.88
2022-11-22T00:55:23.090Z,40.50
2022-11-22T00:57:24.923Z,41.30
2022-11-22T00:59:27.177Z,40.72
2022-11-22T01:01:29.669Z,41.63
2022-11-22T01:03:31.543Z,40.45
2022-11-22T01:05:33.500Z,41.60
2022-11-22T01:07:35.645Z,43.70
2022-11-22T01:09:37.640Z,42.70
2022-11-22T01:11:39.398Z,41.20
2022-11-22T01:13:41.500Z,42.33
2022-11-22T01:15:43.255Z,43.05
2022-11-22T01:17:45.218Z,42.10
2022-11-22T01:19:47.310Z,43.95
2022-11-22T01:21:49.095Z,43.10
2022-11-22T01:23:51.456Z,43.22
2022-11-22T01:25:53.598Z,42.13
2022-11-22T01:27:55.378Z,42.92
2022-11-22T01:29:57.297Z,41.78
2022-11-22T01:31:59.426Z,40.95
2022-11-22T01:34:01.231Z,43.05
2022-11-22T01:36:03.330Z,41.50
2022-11-22T01:38:05.461Z,41.25
2022-11-22T01:40:07.870Z,41.63
2022-11-22T01:42:11.353Z,42.35
2022-11-22T01:44:25.578Z,42.20
2022-11-22T01:46:34.906Z,43.83
2022-11-22T01:48:49.014Z,45.08
2022-11-22T01:50:57.421Z,44.78
2022-11-22T01:53:04.287Z,44.75
2022-11-22T01:55:12.881Z,43.55
2022-11-22T01:57:19.398Z,44.45
2022-11-22T01:59:25.206Z,43.97
2022-11-22T02:01:28.510Z,45.05
2022-11-22T02:03:33.388Z,44.95
2022-11-22T02:05:35.861Z,46.70
2022-11-22T02:07:51.781Z,46.63
2022-11-22T02:09:54.300Z,44.92
2022-11-22T02:12:00.379Z,45.38
2022-11-22T02:14:03.778Z,46.05
2022-11-22T02:16:06.909Z,45.30
2022-11-22T02:18:09.282Z,46.78
2022-11-22T02:20:11.738Z,47.35
2022-11-22T02:22:34.000Z,46.03
2022-11-22T02:24:43.985Z,47.63
2022-11-22T02:26:46.149Z,45.58
2022-11-22T02:28:49.770Z,45.45
2022-11-22T02:30:51.576Z,47.22
2022-11-22T02:32:53.386Z,47.65
2022-11-22T02:34:55.479Z,47.58
2022-11-22T02:36:57.526Z,49.20
2022-11-22T02:38:59.379Z,48.10
2022-11-22T02:41:08.724Z,49.50
2022-11-22T02:43:17.943Z,47.08
2022-11-22T02:45:19.838Z,44.25
2022-11-22T02:47:22.161Z,48.00
2022-11-22T02:49:25.168Z,45.58
2022-11-22T02:51:27.109Z,49.08
2022-11-22T02:53:31.734Z,46.47
2022-11-22T02:55:33.980Z,46.78
2022-11-22T02:57:35.852Z,45.97
2022-11-22T02:59:37.995Z,46.85
2022-11-22T03:01:40.758Z,47.78
2022-11-22T03:03:42.545Z,47.92
2022-11-22T03:05:44.906Z,46.45
2022-11-22T03:07:46.772Z,48.53
2022-11-22T03:09:48.568Z,46.67
2022-11-22T03:11:50.862Z,47.95
2022-11-22T03:13:52.672Z,35.38
2022-11-22T03:15:54.528Z,45.80
2022-11-22T03:18:00.941Z,48.70
2022-11-22T03:20:03.351Z,48.47
2022-11-22T03:22:05.407Z,47.13
2022-11-22T03:24:08.403Z,46.20
2022-11-22T03:26:11.399Z,46.92
2022-11-22T03:30:15.806Z,46.45
2022-11-22T03:32:17.594Z,46.97
2022-11-22T03:34:19.403Z,47.08
2022-11-22T03:36:21.926Z,48.15
2022-11-22T03:38:23.836Z,46.97
2022-11-22T03:40:25.618Z,47.55
2022-11-22T03:42:28.229Z,44.92
2022-11-22T03:44:29.994Z,47.83
2022-11-22T03:46:31.978Z,48.22
2022-11-22T03:48:34.115Z,49.50
2022-11-22T03:50:35.910Z,49.33
2022-11-22T03:52:37.782Z,51.22
2022-11-22T03:54:39.933Z,47.45
2022-11-22T03:56:41.702Z,48.20
2022-11-22T03:58:43.599Z,47.85
2022-11-22T04:00:45.673Z,46.95
2022-11-22T04:02:47.476Z,48.45
2022-11-22T04:04:49.231Z,47.05
2022-11-22T04:06:51.344Z,48.67
2022-11-22T04:08:53.189Z,48.80
2022-11-22T04:10:55.023Z,48.92
2022-11-22T04:12:58.505Z,48.05
2022-11-22T04:15:09.587Z,48.70
2022-11-22T04:17:35.022Z,47.50
2022-11-22T04:19:37.100Z,47.75
2022-11-22T04:21:38.869Z,46.58
2022-11-22T04:23:42.627Z,48.33
2022-11-22T04:25:50.137Z,46.70
2022-11-22T04:27:52.038Z,43.13
2022-11-22T04:29:53.809Z,42.67
2022-11-22T04:32:14.343Z,42.42
2022-11-22T04:34:16.078Z,41.25
2022-11-22T04:36:18.038Z,41.13
2022-11-22T04:38:20.627Z,42.05
2022-11-22T04:40:22.456Z,41.85
2022-11-22T04:42:42.830Z,42.47
2022-11-22T04:44:45.622Z,43.13
2022-11-22T04:46:47.366Z,46.70
2022-11-22T04:48:49.101Z,47.63
2022-11-22T04:51:09.948Z,45.67
2022-11-22T04:53:11.957Z,48.40
2022-11-22T04:55:14.063Z,47.47
2022-11-22T04:57:16.142Z,47.05
2022-11-22T04:59:18.321Z,46.67
2022-11-22T05:01:20.338Z,46.05
2022-11-22T05:03:22.637Z,35.92
2022-11-22T05:05:25.734Z,44.40
2022-11-22T05:07:27.650Z,47.88
2022-11-22T05:09:29.897Z,47.83
2022-11-22T05:11:31.872Z,46.50
2022-11-22T05:13:37.088Z,46.15
2022-11-22T05:15:39.150Z,47.10
2022-11-22T05:17:40.933Z,47.22
2022-11-22T05:19:48.917Z,45.20
2022-11-22T05:21:51.315Z,48.42
2022-11-22T05:23:56.546Z,46.45
2022-11-22T05:25:59.144Z,46.50
2022-11-22T05:28:01.214Z,45.72
2022-11-22T05:30:03.439Z,47.85
2022-11-22T05:32:05.205Z,47.13
2022-11-22T05:34:07.523Z,47.63
2022-11-22T05:36:09.673Z,48.13
2022-11-22T05:38:11.451Z,47.08
2022-11-22T05:40:13.620Z,47.30
2022-11-22T05:42:15.343Z,49.40
2022-11-22T05:44:17.074Z,48.33
2022-11-22T05:46:25.412Z,48.13
2022-11-22T05:48:27.317Z,47.55
2022-11-22T05:50:29.106Z,50.03
2022-11-22T05:52:31.451Z,48.22
2022-11-22T05:54:33.217Z,53.03
2022-11-22T05:56:35.317Z,52.13
2022-11-22T05:58:37.838Z,52.60
2022-11-22T06:00:39.629Z,50.53
2022-11-22T06:02:41.499Z,49.10
2022-11-22T06:04:43.630Z,47.63
2022-11-22T06:06:47.141Z,50.33
2022-11-22T06:08:49.082Z,51.58
2022-11-22T06:10:51.155Z,53.70
2022-11-22T06:12:53.234Z,54.20
2022-11-22T06:14:55.007Z,51.80
2022-11-22T06:16:57.120Z,53.47
2022-11-22T06:18:58.837Z,55.65
2022-11-22T06:21:02.404Z,50.83
2022-11-22T06:23:04.466Z,52.40
2022-11-22T06:25:06.681Z,49.65
2022-11-22T06:27:09.012Z,54.47
2022-11-22T06:29:11.119Z,54.00
2022-11-22T06:31:18.186Z,52.47
2022-11-22T06:33:20.651Z,56.38
2022-11-22T06:35:22.768Z,52.20
2022-11-22T06:37:24.770Z,53.65
2022-11-22T06:39:26.740Z,54.28
2022-11-22T06:41:35.285Z,54.45
2022-11-22T06:43:41.391Z,67.88
2022-11-22T06:45:46.959Z,72.15
2022-11-22T06:47:49.049Z,61.07
2022-11-22T06:49:50.990Z,52.42
2022-11-22T06:51:52.699Z,57.28
2022-11-22T06:53:56.126Z,63.30
2022-11-22T06:58:07.010Z,50.22
2022-11-22T07:00:10.048Z,51.17
2022-11-22T07:02:12.302Z,49.47
2022-11-22T07:04:14.198Z,49.35
2022-11-22T07:06:18.321Z,50.63
2022-11-22T07:08:20.374Z,51.25
2022-11-22T07:10:22.107Z,50.70
2022-11-22T07:12:24.482Z,51.67
2022-11-22T07:14:26.265Z,56.77
2022-11-22T07:16:28.303Z,54.28
2022-11-22T07:18:30.911Z,53.50
2022-11-22T07:20:32.898Z,52.53
2022-11-22T07:22:34.639Z,51.80
2022-11-22T07:24:36.763Z,51.97
2022-11-22T07:26:38.584Z,54.25
2022-11-22T07:28:41.075Z,53.40
2022-11-22T07:32:49.242Z,50.97
2022-11-22T07:34:51.027Z,52.58
2022-11-22T07:36:58.726Z,54.80
2022-11-22T07:39:03.556Z,51.55
2022-11-22T07:41:06.338Z,52.88
2022-11-22T07:45:10.538Z,51.65
2022-11-22T07:47:12.280Z,51.05
2022-11-22T07:49:14.458Z,53.00
2022-11-22T07:51:16.780Z,62.42
2022-11-22T07:53:18.539Z,52.22
2022-11-22T07:55:20.631Z,52.72
2022-11-22T07:57:22.521Z,52.13
2022-11-22T07:59:25.227Z,52.88
2022-11-22T08:01:27.322Z,52.88
2022-11-22T08:03:29.496Z,54.28
2022-11-22T08:05:31.284Z,53.08
2022-11-22T08:07:33.662Z,53.23
2022-11-22T08:09:36.170Z,53.00
2022-11-22T08:11:37.931Z,52.05
2022-11-22T08:13:40.871Z,55.08
2022-11-22T08:15:42.899Z,54.88
2022-11-22T08:17:44.659Z,52.95
2022-11-22T08:19:46.941Z,54.83
2022-11-22T08:21:52.734Z,51.60
2022-11-22T08:23:59.167Z,51.38
2022-11-22T08:26:01.361Z,52.42
2022-11-22T08:28:03.433Z,52.20
2022-11-22T08:30:05.592Z,52.30
2022-11-22T08:32:07.689Z,54.45
2022-11-22T08:34:09.672Z,51.17
2022-11-22T08:36:11.877Z,52.47
2022-11-22T08:38:13.966Z,53.25
2022-11-22T08:40:15.746Z,53.30
2022-11-22T08:42:17.605Z,56.35
2022-11-22T08:44:19.766Z,56.08
2022-11-22T08:46:21.595Z,55.63
2022-11-22T08:48:27.022Z,54.22
2022-11-22T08:50:29.201Z,54.38
2022-11-22T08:52:30.984Z,63.50
2022-11-22T08:54:37.527Z,56.10
2022-11-22T08:56:40.153Z,55.45
2022-11-22T08:58:42.326Z,53.72
2022-11-22T09:00:44.386Z,53.92
2022-11-22T09:02:46.650Z,54.90
2022-11-22T09:04:48.364Z,52.67
2022-11-22T09:09:36.396Z,51.75
2022-11-22T09:11:34.271Z,53.17
2022-11-22T09:13:36.802Z,55.33
2022-11-22T09:15:38.854Z,53.65
2022-11-22T09:17:40.665Z,52.35
2022-11-22T09:19:42.786Z,52.43
2022-11-22T09:21:44.610Z,53.50
2022-11-22T09:23:48.713Z,53.35
2022-11-22T09:26:02.209Z,54.97
2022-11-22T09:30:06.410Z,54.60
2022-11-22T09:32:23.188Z,55.50
2022-11-22T09:36:27.421Z,50.47
2022-11-22T09:38:30.840Z,51.80
2022-11-22T09:40:33.159Z,52.33
2022-11-22T09:42:53.443Z,54.50
2022-11-22T09:45:06.487Z,53.45
2022-11-22T09:47:42.569Z,51.58
2022-11-22T09:49:47.233Z,49.80
2022-11-22T09:51:54.067Z,52.75
2022-11-22T09:54:11.155Z,52.13
2022-11-22T09:56:15.838Z,51.88
2022-11-22T09:58:27.161Z,52.25
2022-11-22T10:00:30.329Z,50.60
2022-11-22T10:02:59.418Z,52.55
2022-11-22T10:05:07.911Z,49.78
2022-11-22T10:07:20.412Z,49.65
2022-11-22T10:09:48.602Z,49.13
2022-11-22T10:12:02.463Z,50.22
2022-11-22T10:14:13.482Z,52.60
2022-11-22T10:16:28.047Z,50.22
2022-11-22T10:19:05.606Z,51.65
2022-11-22T10:21:15.610Z,48.63
2022-11-22T10:23:22.811Z,49.25
2022-11-22T10:25:48.319Z,49.35
2022-11-22T10:28:00.986Z,50.28
2022-11-22T10:30:06.401Z,49.55
2022-11-22T10:32:24.563Z,48.78
2022-11-22T10:34:38.586Z,46.63
2022-11-22T10:37:03.678Z,49.40
2022-11-22T10:39:17.632Z,47.97
2022-11-22T10:41:55.102Z,49.17
2022-11-22T10:44:18.483Z,46.45
2022-11-22T10:46:56.758Z,45.00
2022-11-22T10:49:14.641Z,44.80
2022-11-22T10:51:26.882Z,48.80
2022-11-22T10:53:48.890Z,48.50
2022-11-22T10:56:03.337Z,45.28
2022-11-22T10:58:18.053Z,46.58
2022-11-22T11:00:22.114Z,51.28
2022-11-22T11:03:05.105Z,41.00
2022-11-22T11:05:13.904Z,30.52
2022-11-22T11:07:22.682Z,38.80
2022-11-22T11:12:47.022Z,30.40
2022-11-22T11:14:54.523Z,33.30
2022-11-22T11:16:59.500Z,33.53
2022-11-22T11:19:22.774Z,35.45
2022-11-22T11:21:27.004Z,35.75
2022-11-22T11:23:29.156Z,35.10
2022-11-22T11:25:33.845Z,32.33
2022-11-22T11:27:35.850Z,31.98
2022-11-22T11:29:52.066Z,34.17
2022-11-22T11:32:10.418Z,37.65
2022-11-22T11:34:25.673Z,32.67
2022-11-22T11:36:27.456Z,34.47
2022-11-22T11:38:52.170Z,32.22
2022-11-22T11:40:56.248Z,34.88
2022-11-22T11:43:20.814Z,32.47
2022-11-22T11:45:25.614Z,32.78
2022-11-22T11:47:34.918Z,32.92
2022-11-22T11:49:36.882Z,31.48
2022-11-22T11:51:42.098Z,32.30
2022-11-22T11:53:55.350Z,34.80
2022-11-22T11:58:23.823Z,30.52
2022-11-22T12:00:34.812Z,34.25
2022-11-22T12:02:42.185Z,34.28
2022-11-22T12:04:53.921Z,34.78
2022-11-22T12:07:03.143Z,36.10
2022-11-22T12:09:26.686Z,38.28
2022-11-22T12:11:43.876Z,38.47
2022-11-22T12:14:19.117Z,36.70
2022-11-22T12:16:26.206Z,38.65
2022-11-22T12:18:46.846Z,33.05
2022-11-22T12:20:55.516Z,35.05
2022-11-22T12:23:09.906Z,35.78
2022-11-22T12:25:32.930Z,36.58
2022-11-22T12:27:35.213Z,37.03
2022-11-22T12:29:43.827Z,36.08
2022-11-22T12:31:53.309Z,38.03
2022-11-22T12:34:00.884Z,39.28
2022-11-22T12:36:06.543Z,40.20
2022-11-22T12:38:17.306Z,41.67
2022-11-22T12:40:26.238Z,37.38
2022-11-22T12:42:33.959Z,36.45
2022-11-22T12:44:39.966Z,35.67
2022-11-22T12:46:48.694Z,35.00
2022-11-22T12:48:53.659Z,36.03
2022-11-22T12:51:01.384Z,35.72
2022-11-22T12:53:12.271Z,35.85
2022-11-22T12:55:20.407Z,34.13
2022-11-22T12:57:32.975Z,34.25
2022-11-22T12:59:48.427Z,34.13
2022-11-22T13:02:05.016Z,33.20
2022-11-22T13:04:09.981Z,32.67
2022-11-22T13:06:14.050Z,34.33
2022-11-22T13:08:19.067Z,32.60
2022-11-22T13:10:31.931Z,32.72
2022-11-22T13:12:38.498Z,30.27
2022-11-22T13:15:01.631Z,32.45
2022-11-22T13:17:09.401Z,32.33
2022-11-22T13:19:17.073Z,31.50
2022-11-22T13:21:35.061Z,31.20
2022-11-22T13:24:17.064Z,29.08
2022-11-22T13:26:46.215Z,28.63
2022-11-22T13:28:48.785Z,29.05
2022-11-22T13:31:07.704Z,28.25
2022-11-22T13:33:25.660Z,26.58
2022-11-22T13:35:40.458Z,26.63
2022-11-22T13:37:47.109Z,36.15
2022-11-22T13:39:50.138Z,28.45
2022-11-22T13:42:04.682Z,29.02
2022-11-22T13:44:42.696Z,31.15
2022-11-22T13:47:12.535Z,27.27
2022-11-22T13:49:33.792Z,26.52
2022-11-22T13:51:54.128Z,25.10
2022-11-22T13:54:35.742Z,25.27
2022-11-22T13:56:41.116Z,25.98
2022-11-22T13:59:03.249Z,25.23
2022-11-22T14:01:30.817Z,24.52
2022-11-22T14:03:38.859Z,24.80
2022-11-22T14:05:47.498Z,23.73
2022-11-22T14:07:51.579Z,25.52
2022-11-22T14:09:53.451Z,25.42
2022-11-22T14:12:25.046Z,27.10
2022-11-22T14:14:35.858Z,26.73
2022-11-22T14:16:48.424Z,26.98
2022-11-22T14:19:27.994Z,25.38
2022-11-22T14:22:09.914Z,26.40
2022-11-22T14:24:21.181Z,27.10
2022-11-22T14:26:38.658Z,25.35
2022-11-22T14:29:37.652Z,26.05
2022-11-22T14:31:40.965Z,25.55
2022-11-22T14:34:39.886Z,26.02
2022-11-22T14:36:43.695Z,26.60
2022-11-22T14:38:53.299Z,27.75
2022-11-22T14:41:33.896Z,27.70
2022-11-22T14:43:41.113Z,28.20
2022-11-22T14:46:00.733Z,28.98
2022-11-22T14:48:24.551Z,27.33
2022-11-22T14:50:43.164Z,28.40
2022-11-22T14:52:47.142Z,29.60
2022-11-22T14:54:55.142Z,28.90
2022-11-22T14:57:07.413Z,35.50
2022-11-22T14:59:31.968Z,30.00
2022-11-22T15:01:58.865Z,30.50
2022-11-22T15:09:17.048Z,28.58
2022-11-22T15:09:19.629Z,29.35
2022-11-22T15:10:34.162Z,28.17
2022-11-22T15:13:15.750Z,27.48
2022-11-22T15:57:50.871Z,33.70
2022-11-22T15:59:55.734Z,31.15
2022-11-22T16:02:00.060Z,31.05
2022-11-22T16:04:04.738Z,33.20
2022-11-22T16:06:15.545Z,32.17
2022-11-22T16:08:17.395Z,31.55
2022-11-22T16:10:25.808Z,33.40
2022-11-22T16:12:37.048Z,33.00
2022-11-22T16:14:45.950Z,36.63
2022-11-22T16:16:49.746Z,36.33
2022-11-22T16:19:22.273Z,34.20
2022-11-22T16:21:30.013Z,34.22
2022-11-22T16:23:35.185Z,33.63
2022-11-22T16:25:44.838Z,33.65
2022-11-22T16:27:48.692Z,34.83
2022-11-22T16:29:52.243Z,35.50
2022-11-22T16:34:26.753Z,36.25
2022-11-22T16:36:30.097Z,36.45
2022-11-22T16:40:44.419Z,35.92
2022-11-22T16:42:47.420Z,36.17
2022-11-22T16:46:53.347Z,34.13
2022-11-22T16:48:56.200Z,33.30
2022-11-22T16:53:04.816Z,32.03
2022-11-22T16:55:20.107Z,33.15
2022-11-22T16:57:22.837Z,33.38
2022-11-22T16:59:24.733Z,34.50
2022-11-22T17:01:33.235Z,33.58
2022-11-22T17:03:41.024Z,33.88
2022-11-22T17:05:43.206Z,35.60
2022-11-22T17:07:45.825Z,34.63
2022-11-22T17:09:48.120Z,34.85
2022-11-22T17:11:51.090Z,33.85
2022-11-22T17:15:56.734Z,36.00
2022-11-22T17:17:58.522Z,35.47
2022-11-22T17:20:03.350Z,34.83
2022-11-22T17:24:33.513Z,36.72
2022-11-22T17:26:37.865Z,34.20
2022-11-22T17:28:42.454Z,35.80
2022-11-22T17:30:45.431Z,36.42
2022-11-22T17:32:48.013Z,36.88
2022-11-22T17:34:52.424Z,37.05
2022-11-22T17:36:54.281Z,38.65
2022-11-22T17:38:57.892Z,37.38
2022-11-22T17:43:21.271Z,39.17
2022-11-22T17:45:23.760Z,52.83
2022-11-22T17:47:26.282Z,37.67
2022-11-22T17:49:28.741Z,40.27
2022-11-22T17:51:31.881Z,37.95
2022-11-22T17:53:35.170Z,38.97
2022-11-22T17:56:09.119Z,40.55
2022-11-22T17:58:02.225Z,39.35
2022-11-22T18:00:09.731Z,40.72
2022-11-22T18:02:13.076Z,39.78
2022-11-22T18:04:17.694Z,42.53
2022-11-22T18:06:23.547Z,45.60
2022-11-22T18:08:25.440Z,43.42
2022-11-22T18:10:27.715Z,41.08
2022-11-22T18:12:29.907Z,38.77
2022-11-22T18:14:38.575Z,40.63
2022-11-22T18:16:41.111Z,41.00
2022-11-22T18:18:56.851Z,39.22
2022-11-22T18:20:59.474Z,42.05
2022-11-22T18:23:05.222Z,42.78
2022-11-22T18:25:07.691Z,41.10
2022-11-22T18:27:11.451Z,40.70
2022-11-22T18:31:51.152Z,37.75
2022-11-22T18:33:55.448Z,39.78
2022-11-22T18:36:06.258Z,40.35
2022-11-22T18:38:08.363Z,40.03
2022-11-22T18:40:10.917Z,31.02
2022-11-22T18:42:15.968Z,41.08
2022-11-22T18:44:18.221Z,39.70
2022-11-22T18:46:20.038Z,39.90
2022-11-22T18:48:24.545Z,42.83
2022-11-22T18:50:27.049Z,39.55
2022-11-22T18:52:34.390Z,40.05
2022-11-22T18:54:36.628Z,41.40
2022-11-22T18:56:41.154Z,40.28
2022-11-22T18:58:43.964Z,40.88
2022-11-22T19:00:48.112Z,39.75
2022-11-22T19:02:51.621Z,40.38
2022-11-22T19:04:54.385Z,41.63
2022-11-22T19:06:56.737Z,39.90
2022-11-22T19:08:58.573Z,39.53
2022-11-22T19:11:00.423Z,41.63
2022-11-22T19:13:04.513Z,41.47
2022-11-22T19:15:09.115Z,40.88
2022-11-22T19:17:10.947Z,41.25
2022-11-22T19:19:13.971Z,41.63
2022-11-22T19:21:19.829Z,39.05
2022-11-22T19:23:22.215Z,41.60
2022-11-22T19:25:25.844Z,42.92
2022-11-22T19:27:28.878Z,44.00
2022-11-22T19:29:36.849Z,40.40
2022-11-22T19:31:40.727Z,38.58
2022-11-22T19:33:55.655Z,41.65
2022-11-22T19:35:58.926Z,43.67
2022-11-22T19:38:02.062Z,40.35
2022-11-22T19:40:06.245Z,41.10
2022-11-22T19:42:08.359Z,42.75
2022-11-22T19:44:11.543Z,41.38
2022-11-22T19:46:14.397Z,40.53
2022-11-22T19:48:20.415Z,39.00
2022-11-22T19:50:22.588Z,39.70
2022-11-22T19:52:24.618Z,39.20
2022-11-22T19:54:26.562Z,38.50
2022-11-22T19:56:34.521Z,41.38
2022-11-22T19:58:36.576Z,41.08
2022-11-22T20:00:38.395Z,41.83
2022-11-22T20:02:42.455Z,39.58
2022-11-22T20:04:44.690Z,40.63
2022-11-22T20:06:52.202Z,40.88
2022-11-22T20:09:05.976Z,46.10
2022-11-22T20:11:09.955Z,41.90
2022-11-22T20:13:19.690Z,39.72
2022-11-22T20:15:22.585Z,41.60
2022-11-22T20:17:24.354Z,41.65
2022-11-22T20:19:34.784Z,40.75
2022-11-22T20:21:37.914Z,40.85
2022-11-22T20:23:39.900Z,41.35
2022-11-22T20:25:41.864Z,41.73
2022-11-22T20:27:44.049Z,40.85
2022-11-22T20:29:48.376Z,42.20
2022-11-22T20:31:50.486Z,40.70
2022-11-22T20:33:57.912Z,42.05
2022-11-22T20:36:11.506Z,40.97
2022-11-22T20:38:15.518Z,40.35
2022-11-22T20:40:17.725Z,40.03
2022-11-22T20:44:37.802Z,39.53
2022-11-22T20:46:40.832Z,39.47
2022-11-22T20:48:51.727Z,40.08
2022-11-22T20:50:53.572Z,41.22
2022-11-22T20:52:56.353Z,40.65
2022-11-22T20:55:04.852Z,42.60
2022-11-22T20:57:07.038Z,41.22
2022-11-22T20:59:09.257Z,42.33
2022-11-22T21:01:16.022Z,41.10
2022-11-22T21:03:17.847Z,42.45
2022-11-22T21:05:19.979Z,39.40
2022-11-22T21:07:21.792Z,43.22
2022-11-22T21:09:24.598Z,41.45
2022-11-22T21:11:32.087Z,42.83
2022-11-22T21:13:34.667Z,43.42
2022-11-22T21:15:36.586Z,38.90
2022-11-22T21:17:55.736Z,44.95
2022-11-22T21:20:01.359Z,43.00
2022-11-22T21:22:03.658Z,43.83
2022-11-22T21:24:06.743Z,45.97
2022-11-22T21:26:08.781Z,42.17
2022-11-22T21:28:10.553Z,45.27
2022-11-22T21:30:13.729Z,43.72
2022-11-22T21:32:17.569Z,41.88
2022-11-22T21:34:19.320Z,43.92
2022-11-22T21:36:21.561Z,41.78
2022-11-22T21:38:29.660Z,42.88
2022-11-22T21:40:32.973Z,42.70
2022-11-22T21:42:36.566Z,40.58
2022-11-22T21:44:38.650Z,40.60
2022-11-22T21:46:40.450Z,38.77
2022-11-22T21:48:42.628Z,31.17
2022-11-22T21:50:44.655Z,39.97
2022-11-22T21:52:48.961Z,42.17
2022-11-22T21:54:54.447Z,40.78
2022-11-22T21:56:59.905Z,39.97
2022-11-22T21:59:06.290Z,41.20
2022-11-22T22:01:14.225Z,39.88
2022-11-22T22:03:16.957Z,41.17
2022-11-22T22:05:19.578Z,40.22
2022-11-22T22:07:50.978Z,40.55
2022-11-22T22:09:43.737Z,42.38
2022-11-22T22:11:47.819Z,41.17
2022-11-22T22:13:53.209Z,41.20
2022-11-22T22:15:59.493Z,40.70
2022-11-22T22:18:03.598Z,40.03
2022-11-22T22:20:06.849Z,37.95
2022-11-22T22:24:11.674Z,38.47
2022-11-22T22:26:16.615Z,38.17
2022-11-22T22:28:18.474Z,37.92
2022-11-22T22:30:23.060Z,39.58
2022-11-22T22:32:26.984Z,38.22
2022-11-22T22:34:29.001Z,38.75
2022-11-22T22:36:30.856Z,39.83
2022-11-22T22:38:33.634Z,40.45
2022-11-22T22:40:35.397Z,40.17
2022-11-22T22:42:37.493Z,40.10
2022-11-22T22:44:41.231Z,39.60
2022-11-22T22:46:43.081Z,38.25
2022-11-22T22:48:45.995Z,39.08
2022-11-22T22:50:48.204Z,37.88
2022-11-22T22:52:50.131Z,38.78
2022-11-22T22:54:51.924Z,40.35
2022-11-22T22:56:54.032Z,40.60
2022-11-22T22:58:57.303Z,40.67
2022-11-22T23:01:12.620Z,40.25
2022-11-22T23:03:14.807Z,41.30
2022-11-22T23:05:17.044Z,39.13
2022-11-22T23:07:18.892Z,40.60
2022-11-22T23:09:22.015Z,41.58
2022-11-22T23:11:45.437Z,41.65
2022-11-22T23:13:47.251Z,41.53
2022-11-22T23:15:58.361Z,38.90
2022-11-22T23:18:00.821Z,39.90
2022-11-22T23:20:02.697Z,39.83
2022-11-22T23:22:05.304Z,40.05
2022-11-22T23:24:08.189Z,41.97
2022-11-22T23:26:12.301Z,39.83
2022-11-22T23:28:14.513Z,37.55
2022-11-22T23:30:16.672Z,39.70
2022-11-22T23:32:18.509Z,40.35
2022-11-22T23:34:20.723Z,41.08
2022-11-22T23:36:23.022Z,39.20
2022-11-22T23:38:24.755Z,41.30
2022-11-22T23:40:27.122Z,41.92
2022-11-22T23:42:29.692Z,39.00
2022-11-22T23:44:31.444Z,39.03
2022-11-22T23:46:33.716Z,39.38
2022-11-22T23:48:35.569Z,38.05
2022-11-22T23:50:37.712Z,41.42
2022-11-22T23:52:39.824Z,38.35
2022-11-22T23:54:41.579Z,38.85
2022-11-22T23:56:43.616Z,39.58
2022-11-22T23:58:45.757Z,40.60
